createdAt,value
2023-02-13T00:00:36.639Z,-7.60
2023-02-13T00:03:04.516Z,-7.58
2023-02-13T00:05:31.783Z,-7.60
2023-02-13T00:07:59.033Z,-7.59
2023-02-13T00:10:26.494Z,-7.57
2023-02-13T00:12:53.924Z,-7.56
2023-02-13T00:15:22.811Z,-7.56
2023-02-13T00:17:50.186Z,-7.54
2023-02-13T00:20:17.599Z,-7.53
2023-02-13T00:22:44.804Z,-7.51
2023-02-13T00:25:12.778Z,-7.48
2023-02-13T00:27:40.038Z,-7.43
2023-02-13T00:30:08.557Z,-7.46
2023-02-13T00:32:37.214Z,-7.43
2023-02-13T00:35:05.094Z,-7.45
2023-02-13T00:37:34.431Z,-7.65
2023-02-13T00:40:01.888Z,-7.39
2023-02-13T00:42:31.332Z,-7.38
2023-02-13T00:44:58.670Z,-7.36
2023-02-13T00:47:25.828Z,-7.34
2023-02-13T00:49:54.503Z,-7.30
2023-02-13T00:52:21.824Z,-7.27
2023-02-13T00:54:50.913Z,-7.26
2023-02-13T00:57:18.051Z,-7.26
2023-02-13T00:59:45.263Z,-7.23
2023-02-13T01:02:12.562Z,-7.22
2023-02-13T01:04:40.114Z,-7.24
2023-02-13T01:07:08.735Z,-7.26
2023-02-13T01:09:36.079Z,-7.23
2023-02-13T01:12:03.841Z,-7.22
2023-02-13T01:14:31.232Z,-7.21
2023-02-13T01:16:58.412Z,-7.25
2023-02-13T01:19:25.930Z,-7.23
2023-02-13T01:21:53.573Z,-7.26
2023-02-13T01:24:22.394Z,-7.27
2023-02-13T01:26:49.616Z,-7.31
2023-02-13T01:29:16.916Z,-7.34
2023-02-13T01:31:44.607Z,-7.30
2023-02-13T01:34:11.868Z,-7.35
2023-02-13T01:36:39.912Z,-7.35
2023-02-13T01:39:07.105Z,-7.38
2023-02-13T01:41:35.835Z,-7.37
2023-02-13T01:44:03.288Z,-7.36
2023-02-13T01:46:33.828Z,-7.37
2023-02-13T01:49:14.374Z,-7.40
2023-02-13T01:51:43.250Z,-7.38
2023-02-13T01:54:15.361Z,-7.40
2023-02-13T01:56:47.663Z,-7.41
2023-02-13T01:59:20.149Z,-7.36
2023-02-13T02:01:48.165Z,-7.38
2023-02-13T02:04:23.058Z,-7.37
2023-02-13T02:06:55.841Z,-7.35
2023-02-13T02:09:32.886Z,-7.31
2023-02-13T02:12:06.360Z,-7.30
2023-02-13T02:14:36.952Z,-7.26
2023-02-13T02:17:07.096Z,-7.26
2023-02-13T02:19:42.019Z,-7.17
2023-02-13T02:22:47.883Z,-7.17
2023-02-13T02:26:04.379Z,-7.20
2023-02-13T02:29:06.051Z,-7.21
2023-02-13T02:32:06.479Z,-7.14
2023-02-13T02:34:41.791Z,-7.16
2023-02-13T02:37:21.872Z,-7.15
2023-02-13T02:40:02.791Z,-7.19
2023-02-13T02:42:42.703Z,-7.19
2023-02-13T02:45:19.941Z,-7.20
2023-02-13T02:48:14.841Z,-7.21
2023-02-13T02:50:47.703Z,-7.20
2023-02-13T02:53:24.191Z,-7.21
2023-02-13T02:55:55.108Z,-7.19
2023-02-13T02:58:47.608Z,-7.17
2023-02-13T03:01:37.461Z,-7.18
2023-02-13T03:04:25.130Z,-7.15
2023-02-13T03:06:55.107Z,-7.20
2023-02-13T03:09:45.559Z,-7.18
2023-02-13T03:12:35.994Z,-7.23
2023-02-13T03:15:03.929Z,-7.19
2023-02-13T03:17:51.068Z,-7.20
2023-02-13T03:20:49.670Z,-7.16
2023-02-13T03:23:23.029Z,-7.16
2023-02-13T03:26:14.856Z,-7.14
2023-02-13T03:29:10.522Z,-7.13
2023-02-13T03:31:49.923Z,-7.12
2023-02-13T03:34:21.322Z,-7.09
2023-02-13T03:37:16.221Z,-7.06
2023-02-13T03:39:50.027Z,-7.20
2023-02-13T03:42:24.107Z,-7.10
2023-02-13T03:45:16.517Z,-7.02
2023-02-13T03:47:45.560Z,-7.05
2023-02-13T03:50:15.085Z,-7.03
2023-02-13T03:52:47.379Z,-6.96
2023-02-13T03:55:36.167Z,-6.94
2023-02-13T03:58:26.462Z,-6.84
2023-02-13T04:00:57.815Z,-6.81
2023-02-13T04:03:29.554Z,-6.72
2023-02-13T04:06:04.607Z,-6.71
2023-02-13T04:08:33.506Z,-6.66
2023-02-13T04:11:10.166Z,-6.66
2023-02-13T04:13:43.894Z,-6.59
2023-02-13T04:16:18.091Z,-6.67
2023-02-13T04:18:45.866Z,-6.54
2023-02-13T04:21:13.260Z,-6.49
2023-02-13T04:23:41.858Z,-6.52
2023-02-13T04:26:16.694Z,-6.39
2023-02-13T04:28:43.968Z,-6.31
2023-02-13T04:31:11.227Z,-6.28
2023-02-13T04:33:38.478Z,-6.25
2023-02-13T04:36:06.888Z,-6.24
2023-02-13T04:38:34.118Z,-6.25
2023-02-13T04:41:02.773Z,-6.28
2023-02-13T04:43:30.035Z,-6.29
2023-02-13T04:45:57.640Z,-6.24
2023-02-13T04:48:25.288Z,-6.27
2023-02-13T04:50:52.504Z,-6.26
2023-02-13T04:53:20.103Z,-6.27
2023-02-13T04:55:47.961Z,-6.26
2023-02-13T04:58:16.716Z,-6.19
2023-02-13T05:00:44.076Z,-6.09
2023-02-13T05:03:13.378Z,-6.13
2023-02-13T05:05:41.250Z,-6.13
2023-02-13T05:08:09.522Z,-6.09
2023-02-13T05:10:36.969Z,-6.04
2023-02-13T05:13:04.168Z,-5.99
2023-02-13T05:15:33.117Z,-6.03
2023-02-13T05:18:00.427Z,-6.02
2023-02-13T05:20:27.955Z,-5.99
2023-02-13T05:23:14.185Z,-5.92
2023-02-13T05:25:42.338Z,-5.91
2023-02-13T05:28:29.720Z,-5.96
2023-02-13T05:30:59.082Z,-6.01
2023-02-13T05:33:26.503Z,-5.94
2023-02-13T05:35:53.765Z,-5.89
2023-02-13T05:38:21.053Z,-5.86
2023-02-13T05:40:48.592Z,-5.82
2023-02-13T05:43:15.876Z,-5.79
2023-02-13T05:45:43.476Z,-5.75
2023-02-13T05:48:12.333Z,-5.72
2023-02-13T05:50:39.673Z,-5.72
2023-02-13T05:53:07.155Z,-5.74
2023-02-13T05:55:34.373Z,-5.69
2023-02-13T05:58:01.651Z,-5.67
2023-02-13T06:00:29.137Z,-5.61
2023-02-13T06:02:56.631Z,-5.55
2023-02-13T06:05:25.435Z,-5.59
2023-02-13T06:07:52.826Z,-5.59
2023-02-13T06:10:20.240Z,-5.57
2023-02-13T06:12:47.788Z,-5.50
2023-02-13T06:15:15.336Z,-5.49
2023-02-13T06:17:42.655Z,-5.48
2023-02-13T06:20:10.559Z,-5.42
2023-02-13T06:22:39.223Z,-5.37
2023-02-13T06:25:07.075Z,-5.32
2023-02-13T06:27:34.521Z,-5.30
2023-02-13T06:30:02.222Z,-5.30
2023-02-13T06:32:31.476Z,-5.23
2023-02-13T06:34:59.031Z,-5.18
2023-02-13T06:37:26.317Z,-5.16
2023-02-13T06:39:55.077Z,-5.10
2023-02-13T06:42:22.385Z,-5.10
2023-02-13T06:44:50.001Z,-5.06
2023-02-13T06:47:17.385Z,-5.07
2023-02-13T06:52:31.730Z,-5.02
2023-02-13T06:55:00.335Z,-4.95
2023-02-13T06:57:27.636Z,-4.90
2023-02-13T06:59:54.884Z,-4.94
2023-02-13T07:02:22.531Z,-4.86
2023-02-13T07:04:49.791Z,-4.74
2023-02-13T07:07:17.206Z,-4.82
2023-02-13T07:09:44.440Z,-4.82
2023-02-13T07:12:13.172Z,-4.78
2023-02-13T07:14:41.266Z,-4.78
2023-02-13T07:17:08.657Z,-4.80
2023-02-13T07:19:35.812Z,-4.75
2023-02-13T07:22:03.075Z,-4.79
2023-02-13T07:24:30.427Z,-4.71
2023-02-13T07:26:57.664Z,-4.69
2023-02-13T07:29:26.562Z,-4.63
2023-02-13T07:31:53.900Z,-4.65
2023-02-13T07:34:21.491Z,-4.69
2023-02-13T07:36:48.908Z,-4.64
2023-02-13T07:39:16.280Z,-4.60
2023-02-13T07:41:43.751Z,-4.54
2023-02-13T07:44:11.136Z,-4.43
2023-02-13T07:46:39.823Z,-4.41
2023-02-13T07:49:07.040Z,-4.36
2023-02-13T07:51:34.179Z,-4.38
2023-02-13T07:54:02.095Z,-4.37
2023-02-13T07:56:29.384Z,-4.31
2023-02-13T07:58:57.274Z,-4.23
2023-02-13T08:01:24.672Z,-4.27
2023-02-13T08:03:53.537Z,-4.11
2023-02-13T08:06:21.381Z,-4.15
2023-02-13T08:08:48.698Z,-4.18
2023-02-13T08:11:43.029Z,-4.25
2023-02-13T08:14:10.291Z,-4.06
2023-02-13T08:16:37.700Z,-4.00
2023-02-13T08:19:06.587Z,-4.00
2023-02-13T08:21:35.397Z,-3.98
2023-02-13T08:24:02.788Z,-3.93
2023-02-13T08:26:31.460Z,-3.90
2023-02-13T08:28:58.775Z,-3.87
2023-02-13T08:31:26.247Z,-3.79
2023-02-13T08:33:53.693Z,-3.75
2023-02-13T08:36:22.490Z,-3.65
2023-02-13T08:38:50.142Z,-3.63
2023-02-13T08:41:21.067Z,-3.62
2023-02-13T08:43:49.847Z,-3.64
2023-02-13T08:46:20.032Z,-3.61
2023-02-13T08:48:50.798Z,-3.61
2023-02-13T08:51:18.149Z,-3.60
2023-02-13T08:53:47.136Z,-3.55
2023-02-13T08:56:14.672Z,-3.52
2023-02-13T08:58:42.085Z,-3.51
2023-02-13T09:01:11.753Z,-3.52
2023-02-13T09:03:39.082Z,-3.49
2023-02-13T09:06:06.887Z,-3.42
2023-02-13T09:08:35.025Z,-3.46
2023-02-13T09:11:06.680Z,-3.68
2023-02-13T09:13:37.652Z,-3.32
2023-02-13T09:16:06.958Z,-3.29
2023-02-13T09:18:35.464Z,-3.27
2023-02-13T09:21:06.594Z,-3.24
2023-02-13T09:23:38.145Z,-3.23
2023-02-13T09:26:10.091Z,-3.14
2023-02-13T09:28:38.292Z,-3.10
2023-02-13T09:31:10.854Z,-3.09
2023-02-13T09:33:38.685Z,-3.11
2023-02-13T09:36:06.853Z,-3.07
2023-02-13T09:38:36.556Z,-3.01
2023-02-13T09:41:10.067Z,-2.95
2023-02-13T09:43:44.767Z,-2.94
2023-02-13T09:46:16.479Z,-2.78
2023-02-13T09:48:47.264Z,-2.74
2023-02-13T09:51:16.344Z,-2.66
2023-02-13T09:53:51.207Z,-2.57
2023-02-13T09:56:27.026Z,-2.52
2023-02-13T09:59:01.320Z,-2.40
2023-02-13T10:01:32.129Z,-2.29
2023-02-13T10:04:14.447Z,-2.27
2023-02-13T10:06:51.691Z,-2.11
2023-02-13T10:09:30.063Z,-2.04
2023-02-13T10:12:26.211Z,-2.00
2023-02-13T10:15:05.239Z,-1.95
2023-02-13T10:17:36.276Z,-2.19
2023-02-13T10:20:15.832Z,-1.89
2023-02-13T10:22:48.130Z,-1.80
2023-02-13T10:25:21.406Z,-1.86
2023-02-13T10:27:55.857Z,-1.88
2023-02-13T10:30:28.695Z,-1.91
2023-02-13T10:33:21.176Z,-2.04
2023-02-13T10:35:54.609Z,-1.91
2023-02-13T10:38:23.760Z,-1.83
2023-02-13T10:41:15.108Z,-1.77
2023-02-13T10:43:59.288Z,-1.75
2023-02-13T10:46:33.923Z,-1.77
2023-02-13T10:49:15.594Z,-1.78
2023-02-13T10:51:51.019Z,-1.79
2023-02-13T10:54:31.613Z,-1.71
2023-02-13T10:57:11.267Z,-1.64
2023-02-13T10:59:53.359Z,-1.57
2023-02-13T11:02:24.956Z,-1.57
2023-02-13T11:04:56.335Z,-1.57
2023-02-13T11:07:26.210Z,-1.54
2023-02-13T11:09:56.973Z,-1.49
2023-02-13T11:12:27.125Z,-1.58
2023-02-13T11:14:57.972Z,-1.46
2023-02-13T11:17:26.843Z,-1.36
2023-02-13T11:19:57.222Z,-1.34
2023-02-13T11:22:32.689Z,-1.31
2023-02-13T11:25:03.431Z,-1.31
2023-02-13T11:27:35.666Z,-1.25
2023-02-13T11:30:07.582Z,-1.16
2023-02-13T11:32:35.936Z,-1.14
2023-02-13T11:35:27.446Z,-1.16
2023-02-13T11:38:14.624Z,-1.14
2023-02-13T11:40:44.594Z,-1.13
2023-02-13T11:43:19.942Z,-1.12
2023-02-13T11:46:02.157Z,-1.11
2023-02-13T11:48:29.819Z,-1.05
2023-02-13T11:50:57.669Z,-1.02
2023-02-13T11:53:29.275Z,-1.01
2023-02-13T11:56:06.363Z,-0.93
2023-02-13T11:58:34.657Z,-0.91
2023-02-13T12:01:28.487Z,-0.99
2023-02-13T12:04:04.818Z,-0.89
2023-02-13T12:06:39.800Z,-0.83
2023-02-13T12:09:14.273Z,-0.80
2023-02-13T12:11:45.546Z,-0.79
2023-02-13T12:14:18.611Z,-0.77
2023-02-13T12:16:50.688Z,-0.73
2023-02-13T12:19:22.514Z,-0.75
2023-02-13T12:22:01.183Z,-0.61
2023-02-13T12:24:45.419Z,-0.59
2023-02-13T12:27:20.162Z,-0.62
2023-02-13T12:30:06.860Z,-0.57
2023-02-13T12:32:48.273Z,-0.57
2023-02-13T12:35:29.100Z,-0.58
2023-02-13T12:38:02.049Z,-0.63
2023-02-13T12:40:45.043Z,-0.59
2023-02-13T12:43:37.809Z,-0.59
2023-02-13T12:46:12.096Z,-0.51
2023-02-13T12:48:53.014Z,-0.52
2023-02-13T12:51:34.986Z,-0.51
2023-02-13T12:54:15.785Z,-0.47
2023-02-13T12:56:57.370Z,-0.48
2023-02-13T12:59:38.068Z,-0.51
2023-02-13T13:02:41.781Z,-0.59
2023-02-13T13:05:23.219Z,-0.56
2023-02-13T13:08:12.769Z,-0.51
2023-02-13T13:10:52.742Z,-0.62
2023-02-13T13:13:32.035Z,-0.43
2023-02-13T13:16:06.446Z,-0.61
2023-02-13T13:18:50.321Z,-0.43
2023-02-13T13:21:29.465Z,-0.38
2023-02-13T13:24:02.383Z,-0.38
2023-02-13T13:26:37.382Z,-0.36
2023-02-13T13:29:10.233Z,-0.53
2023-02-13T13:31:38.487Z,-0.32
2023-02-13T13:34:18.269Z,-0.30
2023-02-13T13:36:51.246Z,-0.28
2023-02-13T13:39:26.706Z,-0.33
2023-02-13T13:42:02.454Z,-0.36
2023-02-13T13:45:06.561Z,-0.37
2023-02-13T13:47:46.521Z,-0.49
2023-02-13T13:50:21.461Z,-0.37
2023-02-13T13:53:11.471Z,-0.45
2023-02-13T13:56:05.876Z,-0.37
2023-02-13T13:58:36.921Z,-0.46
2023-02-13T14:01:20.690Z,-0.43
2023-02-13T14:03:48.928Z,-0.46
2023-02-13T14:06:18.124Z,-0.48
2023-02-13T14:09:21.211Z,-0.48
2023-02-13T14:11:50.077Z,-0.52
2023-02-13T14:14:45.271Z,-0.52
2023-02-13T14:17:16.098Z,-0.53
2023-02-13T14:19:49.952Z,-0.53
2023-02-13T14:22:33.033Z,-0.55
2023-02-13T14:25:03.390Z,-0.57
2023-02-13T14:27:35.090Z,-0.59
2023-02-13T14:30:22.607Z,-0.77
2023-02-13T14:32:49.814Z,-0.59
2023-02-13T14:35:23.452Z,-0.61
2023-02-13T14:37:53.285Z,-0.65
2023-02-13T14:40:52.764Z,-0.62
2023-02-13T14:43:29.281Z,-0.68
2023-02-13T14:45:59.400Z,-0.67
2023-02-13T14:48:36.708Z,-0.57
2023-02-13T14:51:05.603Z,-0.57
2023-02-13T14:53:46.690Z,-0.59
2023-02-13T14:56:19.079Z,-0.60
2023-02-13T14:58:51.617Z,-0.60
2023-02-13T15:01:28.542Z,-0.60
2023-02-13T15:04:05.674Z,-0.67
2023-02-13T15:06:37.115Z,-0.55
2023-02-13T15:09:13.372Z,-0.64
2023-02-13T15:11:43.160Z,-0.63
2023-02-13T15:14:26.278Z,-0.60
2023-02-13T15:16:58.246Z,-0.69
2023-02-13T15:19:26.813Z,-0.63
2023-02-13T15:21:57.882Z,-0.70
2023-02-13T15:24:25.883Z,-0.62
2023-02-13T15:27:01.094Z,-0.73
2023-02-13T15:29:40.945Z,-0.65
2023-02-13T15:32:21.010Z,-0.61
2023-02-13T15:34:49.169Z,-0.62
2023-02-13T15:37:28.415Z,-0.74
2023-02-13T15:39:55.759Z,-0.64
2023-02-13T15:42:23.429Z,-0.64
2023-02-13T15:44:56.547Z,-0.64
2023-02-13T15:47:28.425Z,-0.62
2023-02-13T15:49:56.121Z,-0.61
2023-02-13T15:52:32.530Z,-0.61
2023-02-13T15:55:00.499Z,-0.62
2023-02-13T15:57:28.659Z,-0.59
2023-02-13T16:00:00.476Z,-0.61
2023-02-13T16:02:38.684Z,-0.60
2023-02-13T16:05:06.930Z,-0.63
2023-02-13T16:07:48.243Z,-0.72
2023-02-13T16:10:15.871Z,-0.63
2023-02-13T16:12:47.222Z,-0.57
2023-02-13T16:15:20.127Z,-0.57
2023-02-13T16:17:48.130Z,-0.55
2023-02-13T16:20:21.728Z,-0.49
2023-02-13T16:22:53.121Z,-0.64
2023-02-13T16:25:24.863Z,-0.55
2023-02-13T16:27:54.745Z,-0.55
2023-02-13T16:30:34.017Z,-0.52
2023-02-13T16:33:12.236Z,-0.48
2023-02-13T16:35:42.792Z,-0.51
2023-02-13T16:38:42.591Z,-0.45
2023-02-13T16:41:32.040Z,-0.49
2023-02-13T16:44:03.168Z,-0.48
2023-02-13T16:46:35.285Z,-0.46
2023-02-13T16:49:07.002Z,-0.48
2023-02-13T16:51:38.738Z,-0.48
2023-02-13T16:54:15.702Z,-0.43
2023-02-13T16:56:46.627Z,-0.42
2023-02-13T16:59:26.784Z,-0.45
2023-02-13T17:02:22.997Z,-0.37
2023-02-13T17:04:53.850Z,-0.54
2023-02-13T17:07:24.323Z,-0.43
2023-02-13T17:09:57.110Z,-0.40
2023-02-13T17:12:24.512Z,-0.38
2023-02-13T17:14:52.180Z,-0.32
2023-02-13T17:17:22.901Z,-0.32
2023-02-13T17:19:50.746Z,-0.34
2023-02-13T17:22:34.614Z,-0.32
2023-02-13T17:25:03.874Z,-0.35
2023-02-13T17:27:31.634Z,-0.38
2023-02-13T17:29:59.234Z,-0.33
2023-02-13T17:32:28.551Z,-0.37
2023-02-13T17:34:55.892Z,-0.33
2023-02-13T17:37:24.774Z,-0.41
2023-02-13T17:39:53.062Z,-0.35
2023-02-13T17:42:25.916Z,-0.30
2023-02-13T17:44:53.439Z,-0.29
2023-02-13T17:47:21.524Z,-0.32
2023-02-13T17:49:50.558Z,-0.37
2023-02-13T17:52:20.788Z,-0.31
2023-02-13T17:54:48.731Z,-0.34
2023-02-13T17:57:17.909Z,-0.32
2023-02-13T17:59:46.368Z,-0.30
2023-02-13T18:02:16.076Z,-0.28
2023-02-13T18:04:43.760Z,-0.27
2023-02-13T18:07:15.372Z,-0.45
2023-02-13T18:09:43.372Z,-0.25
2023-02-13T18:12:14.598Z,-0.35
2023-02-13T18:14:42.341Z,-0.24
2023-02-13T18:17:10.062Z,-0.25
2023-02-13T18:19:37.943Z,-0.26
2023-02-13T18:22:05.708Z,-0.26
2023-02-13T18:24:36.143Z,-0.27
2023-02-13T18:27:03.967Z,-0.26
2023-02-13T18:29:31.410Z,-0.25
2023-02-13T18:31:58.827Z,-0.26
2023-02-13T18:34:26.189Z,-0.20
2023-02-13T18:36:53.522Z,-0.17
2023-02-13T18:39:21.085Z,-0.19
2023-02-13T18:41:49.709Z,-0.21
2023-02-13T18:44:26.948Z,-0.22
2023-02-13T18:46:55.572Z,-0.20
2023-02-13T18:49:23.030Z,-0.29
2023-02-13T18:51:50.661Z,-0.19
2023-02-13T18:54:18.329Z,-0.17
2023-02-13T18:56:46.785Z,-0.16
2023-02-13T18:59:15.671Z,-0.16
2023-02-13T19:01:43.210Z,-0.17
2023-02-13T19:04:11.019Z,-0.12
2023-02-13T19:06:42.326Z,-0.13
2023-02-13T19:09:09.922Z,-0.09
2023-02-13T19:11:39.059Z,-0.14
2023-02-13T19:14:07.040Z,-0.11
2023-02-13T19:16:36.548Z,-0.10
2023-02-13T19:19:06.719Z,-0.08
2023-02-13T19:21:36.827Z,-0.14
2023-02-13T19:24:05.638Z,-0.09
2023-02-13T19:26:32.942Z,-0.05
2023-02-13T19:29:00.329Z,-0.05
2023-02-13T19:31:30.252Z,-0.05
2023-02-13T19:34:02.972Z,-0.02
2023-02-13T19:36:30.375Z,0.00
2023-02-13T19:38:59.810Z,0.00
2023-02-13T19:41:29.076Z,-0.02
2023-02-13T19:43:56.587Z,0.04
2023-02-13T19:46:25.631Z,-0.03
2023-02-13T19:48:55.276Z,0.03
2023-02-13T19:51:26.133Z,-0.01
2023-02-13T19:53:57.167Z,0.03
2023-02-13T19:56:26.313Z,0.02
2023-02-13T19:58:54.524Z,0.02
2023-02-13T20:01:23.460Z,0.00
2023-02-13T20:03:51.048Z,0.03
2023-02-13T20:06:20.822Z,-0.08
2023-02-13T20:08:50.231Z,0.04
2023-02-13T20:11:18.980Z,-0.03
2023-02-13T20:13:46.177Z,0.03
2023-02-13T20:16:15.508Z,0.00
2023-02-13T20:18:43.499Z,0.03
2023-02-13T20:21:12.365Z,-0.07
2023-02-13T20:23:40.186Z,0.04
2023-02-13T20:26:11.596Z,-0.03
2023-02-13T20:28:38.880Z,0.08
2023-02-13T20:31:10.491Z,0.09
2023-02-13T20:33:38.740Z,0.10
2023-02-13T20:36:10.895Z,0.13
2023-02-13T20:38:38.577Z,0.14
2023-02-13T20:41:11.778Z,0.11
2023-02-13T20:43:39.321Z,0.23
2023-02-13T20:46:07.124Z,0.22
2023-02-13T20:48:35.797Z,0.24
2023-02-13T20:51:05.711Z,0.15
2023-02-13T20:53:33.132Z,0.24
2023-02-13T20:56:05.103Z,0.06
2023-02-13T20:58:34.752Z,0.29
2023-02-13T21:01:02.528Z,0.27
2023-02-13T21:03:30.176Z,0.26
2023-02-13T21:05:57.483Z,0.27
2023-02-13T21:08:24.658Z,0.28
2023-02-13T21:10:51.910Z,0.29
2023-02-13T21:13:19.197Z,0.31
2023-02-13T21:15:49.654Z,0.32
2023-02-13T21:18:16.871Z,0.30
2023-02-13T21:20:45.237Z,0.32
2023-02-13T21:23:12.594Z,0.36
2023-02-13T21:25:39.837Z,0.36
2023-02-13T21:28:07.404Z,0.37
2023-02-13T21:30:36.594Z,0.34
2023-02-13T21:33:05.166Z,0.37
2023-02-13T21:35:32.395Z,0.35
2023-02-13T21:37:59.540Z,0.38
2023-02-13T21:40:26.834Z,0.37
2023-02-13T21:42:54.244Z,0.38
2023-02-13T21:45:21.615Z,0.38
2023-02-13T21:47:49.026Z,0.41
2023-02-13T21:50:17.845Z,0.39
2023-02-13T21:52:45.126Z,0.39
2023-02-13T21:55:12.371Z,0.39
2023-02-13T21:57:40.121Z,0.40
2023-02-13T22:00:10.721Z,0.41
2023-02-13T22:02:41.115Z,0.43
2023-02-13T22:05:08.701Z,0.39
2023-02-13T22:07:57.274Z,0.40
2023-02-13T22:10:24.559Z,0.41
2023-02-13T22:12:52.715Z,0.41
2023-02-13T22:15:20.694Z,0.41
2023-02-13T22:17:48.040Z,0.41
2023-02-13T22:20:15.470Z,0.33
2023-02-13T22:22:44.620Z,0.43
2023-02-13T22:25:12.482Z,0.42
2023-02-13T22:27:40.195Z,0.43
2023-02-13T22:30:08.440Z,0.43
2023-02-13T22:32:35.894Z,0.39
2023-02-13T22:35:03.323Z,0.43
2023-02-13T22:37:30.840Z,0.41
2023-02-13T22:39:59.516Z,0.39
2023-02-13T22:42:26.735Z,0.38
2023-02-13T22:44:54.274Z,0.36
2023-02-13T22:47:21.553Z,0.38
2023-02-13T22:49:49.002Z,0.36
2023-02-13T22:52:16.318Z,0.38
2023-02-13T22:54:43.605Z,0.37
2023-02-13T22:57:12.205Z,0.36
2023-02-13T22:59:40.336Z,0.37
2023-02-13T23:02:07.925Z,0.37
2023-02-13T23:04:35.179Z,0.38
2023-02-13T23:07:02.491Z,0.38
2023-02-13T23:09:29.688Z,0.40
2023-02-13T23:12:15.758Z,0.42
2023-02-13T23:14:44.576Z,0.42
2023-02-13T23:17:30.553Z,0.43
2023-02-13T23:19:57.973Z,0.43
2023-02-13T23:22:25.364Z,0.46
2023-02-13T23:24:52.856Z,0.44
2023-02-13T23:27:20.165Z,0.46
2023-02-13T23:29:48.822Z,0.45
2023-02-13T23:32:16.158Z,0.43
2023-02-13T23:34:43.368Z,0.43
2023-02-13T23:37:10.613Z,0.40
2023-02-13T23:39:37.829Z,0.41
2023-02-13T23:42:05.207Z,0.43
2023-02-13T23:44:32.548Z,0.43
2023-02-13T23:47:01.289Z,0.45
2023-02-13T23:49:28.637Z,0.45
2023-02-13T23:51:55.958Z,0.44
2023-02-13T23:54:24.080Z,0.33
2023-02-13T23:56:53.111Z,0.33
2023-02-13T23:59:22.026Z,0.46
